sensor_id;sensor_type;location;lat;lon;timestamp;temperature;humidity
72126;SHT31;59999;51.676;22.650;2023-05-17T00:01:50;13.29;85.76
72126;SHT31;59999;51.676;22.650;2023-05-17T00:04:16;13.22;86.04
72126;SHT31;59999;51.676;22.650;2023-05-17T00:06:43;13.17;86.06
72126;SHT31;59999;51.676;22.650;2023-05-17T00:09:09;13.21;86.22
72126;SHT31;59999;51.676;22.650;2023-05-17T00:11:35;13.18;86.63
72126;SHT31;59999;51.676;22.650;2023-05-17T00:14:01;13.14;86.63
72126;SHT31;59999;51.676;22.650;2023-05-17T00:16:27;13.11;86.79
72126;SHT31;59999;51.676;22.650;2023-05-17T00:18:53;13.12;86.66
72126;SHT31;59999;51.676;22.650;2023-05-17T00:21:18;13.06;87.00
72126;SHT31;59999;51.676;22.650;2023-05-17T00:23:45;13.04;87.21
72126;SHT31;59999;51.676;22.650;2023-05-17T00:26:10;13.03;87.40
72126;SHT31;59999;51.676;22.650;2023-05-17T00:28:38;13.01;87.50
72126;SHT31;59999;51.676;22.650;2023-05-17T00:31:04;13.01;87.45
72126;SHT31;59999;51.676;22.650;2023-05-17T00:33:30;12.97;87.63
72126;SHT31;59999;51.676;22.650;2023-05-17T00:35:56;12.96;87.84
72126;SHT31;59999;51.676;22.650;2023-05-17T00:38:22;12.90;88.05
72126;SHT31;59999;51.676;22.650;2023-05-17T00:40:48;12.89;88.35
72126;SHT31;59999;51.676;22.650;2023-05-17T00:43:15;12.84;88.57
72126;SHT31;59999;51.676;22.650;2023-05-17T00:45:41;12.80;88.77
72126;SHT31;59999;51.676;22.650;2023-05-17T00:48:07;12.79;88.89
72126;SHT31;59999;51.676;22.650;2023-05-17T00:50:33;12.75;88.93
72126;SHT31;59999;51.676;22.650;2023-05-17T00:52:59;12.73;89.02
72126;SHT31;59999;51.676;22.650;2023-05-17T00:55:25;12.73;89.08
72126;SHT31;59999;51.676;22.650;2023-05-17T00:57:52;12.70;89.18
72126;SHT31;59999;51.676;22.650;2023-05-17T01:00:18;12.69;89.22
72126;SHT31;59999;51.676;22.650;2023-05-17T01:02:44;12.72;89.30
72126;SHT31;59999;51.676;22.650;2023-05-17T01:05:13;12.70;89.36
72126;SHT31;59999;51.676;22.650;2023-05-17T01:07:40;12.69;89.47
72126;SHT31;59999;51.676;22.650;2023-05-17T01:10:06;12.67;89.58
72126;SHT31;59999;51.676;22.650;2023-05-17T01:12:57;12.69;89.66
72126;SHT31;59999;51.676;22.650;2023-05-17T01:15:32;12.66;89.72
72126;SHT31;59999;51.676;22.650;2023-05-17T01:20:37;12.63;89.75
72126;SHT31;59999;51.676;22.650;2023-05-17T01:28:37;12.55;90.06
72126;SHT31;59999;51.676;22.650;2023-05-17T01:31:04;12.57;90.12
72126;SHT31;59999;51.676;22.650;2023-05-17T01:33:30;12.55;90.10
72126;SHT31;59999;51.676;22.650;2023-05-17T01:35:57;12.50;90.15
72126;SHT31;59999;51.676;22.650;2023-05-17T01:38:23;12.49;90.40
72126;SHT31;59999;51.676;22.650;2023-05-17T01:40:57;12.46;90.48
72126;SHT31;59999;51.676;22.650;2023-05-17T01:51:29;12.45;90.77
72126;SHT31;59999;51.676;22.650;2023-05-17T01:54:01;12.46;90.80
72126;SHT31;59999;51.676;22.650;2023-05-17T01:56:35;12.45;90.84
72126;SHT31;59999;51.676;22.650;2023-05-17T01:59:02;12.42;90.88
72126;SHT31;59999;51.676;22.650;2023-05-17T02:01:31;12.45;90.95
72126;SHT31;59999;51.676;22.650;2023-05-17T02:03:57;12.41;91.03
72126;SHT31;59999;51.676;22.650;2023-05-17T02:06:23;12.48;91.03
72126;SHT31;59999;51.676;22.650;2023-05-17T02:08:49;12.41;91.14
72126;SHT31;59999;51.676;22.650;2023-05-17T02:11:15;12.41;91.20
72126;SHT31;59999;51.676;22.650;2023-05-17T02:13:41;12.39;91.36
72126;SHT31;59999;51.676;22.650;2023-05-17T02:16:07;12.38;91.38
72126;SHT31;59999;51.676;22.650;2023-05-17T02:18:33;12.41;91.43
72126;SHT31;59999;51.676;22.650;2023-05-17T02:21:00;12.41;91.43
72126;SHT31;59999;51.676;22.650;2023-05-17T02:23:26;12.41;91.48
72126;SHT31;59999;51.676;22.650;2023-05-17T02:25:51;12.43;91.46
72126;SHT31;59999;51.676;22.650;2023-05-17T02:28:18;12.39;91.47
72126;SHT31;59999;51.676;22.650;2023-05-17T02:30:43;12.42;91.42
72126;SHT31;59999;51.676;22.650;2023-05-17T02:33:10;12.42;91.46
72126;SHT31;59999;51.676;22.650;2023-05-17T02:35:36;12.43;91.49
72126;SHT31;59999;51.676;22.650;2023-05-17T02:38:02;12.42;91.52
72126;SHT31;59999;51.676;22.650;2023-05-17T02:40:28;12.45;91.55
72126;SHT31;59999;51.676;22.650;2023-05-17T02:42:54;12.43;91.67
72126;SHT31;59999;51.676;22.650;2023-05-17T02:45:20;12.46;91.65
72126;SHT31;59999;51.676;22.650;2023-05-17T02:47:46;12.42;91.76
72126;SHT31;59999;51.676;22.650;2023-05-17T02:50:12;12.43;91.80
72126;SHT31;59999;51.676;22.650;2023-05-17T02:52:38;12.41;91.71
72126;SHT31;59999;51.676;22.650;2023-05-17T02:55:04;12.41;91.75
72126;SHT31;59999;51.676;22.650;2023-05-17T02:57:30;12.41;91.75
72126;SHT31;59999;51.676;22.650;2023-05-17T02:59:56;12.42;91.79
72126;SHT31;59999;51.676;22.650;2023-05-17T03:02:22;12.45;91.51
72126;SHT31;59999;51.676;22.650;2023-05-17T03:04:48;12.49;91.53
72126;SHT31;59999;51.676;22.650;2023-05-17T03:07:14;12.50;91.34
72126;SHT31;59999;51.676;22.650;2023-05-17T03:09:40;12.52;91.33
72126;SHT31;59999;51.676;22.650;2023-05-17T03:12:07;12.53;91.29
72126;SHT31;59999;51.676;22.650;2023-05-17T03:14:33;12.52;91.42
72126;SHT31;59999;51.676;22.650;2023-05-17T03:16:59;12.52;91.26
72126;SHT31;59999;51.676;22.650;2023-05-17T03:19:25;12.50;91.24
72126;SHT31;59999;51.676;22.650;2023-05-17T03:21:52;12.50;91.38
72126;SHT31;59999;51.676;22.650;2023-05-17T03:24:18;12.48;91.51
72126;SHT31;59999;51.676;22.650;2023-05-17T03:26:44;12.49;91.51
72126;SHT31;59999;51.676;22.650;2023-05-17T03:29:10;12.49;91.55
72126;SHT31;59999;51.676;22.650;2023-05-17T03:31:36;12.50;91.54
72126;SHT31;59999;51.676;22.650;2023-05-17T03:34:02;12.52;91.56
72126;SHT31;59999;51.676;22.650;2023-05-17T03:36:28;12.48;91.54
72126;SHT31;59999;51.676;22.650;2023-05-17T03:38:54;12.53;91.52
72126;SHT31;59999;51.676;22.650;2023-05-17T03:41:21;12.55;91.57
72126;SHT31;59999;51.676;22.650;2023-05-17T03:43:47;12.56;91.54
72126;SHT31;59999;51.676;22.650;2023-05-17T03:46:13;12.57;91.30
72126;SHT31;59999;51.676;22.650;2023-05-17T03:48:39;12.56;91.38
72126;SHT31;59999;51.676;22.650;2023-05-17T03:51:05;12.55;91.49
72126;SHT31;59999;51.676;22.650;2023-05-17T03:53:31;12.62;91.38
72126;SHT31;59999;51.676;22.650;2023-05-17T03:55:57;12.57;91.43
72126;SHT31;59999;51.676;22.650;2023-05-17T03:58:22;12.56;91.47
72126;SHT31;59999;51.676;22.650;2023-05-17T04:00:48;12.60;91.39
72126;SHT31;59999;51.676;22.650;2023-05-17T04:03:14;12.57;91.61
72126;SHT31;59999;51.676;22.650;2023-05-17T04:05:40;12.59;91.65
72126;SHT31;59999;51.676;22.650;2023-05-17T04:08:06;12.57;91.76
72126;SHT31;59999;51.676;22.650;2023-05-17T04:10:32;12.63;91.58
72126;SHT31;59999;51.676;22.650;2023-05-17T04:12:58;12.67;91.62
72126;SHT31;59999;51.676;22.650;2023-05-17T04:15:24;12.72;91.56
72126;SHT31;59999;51.676;22.650;2023-05-17T04:17:50;12.77;91.53
72126;SHT31;59999;51.676;22.650;2023-05-17T04:20:16;12.84;91.58
72126;SHT31;59999;51.676;22.650;2023-05-17T04:22:42;12.90;91.29
72126;SHT31;59999;51.676;22.650;2023-05-17T04:25:08;12.94;91.13
72126;SHT31;59999;51.676;22.650;2023-05-17T04:27:34;13.01;91.09
72126;SHT31;59999;51.676;22.650;2023-05-17T04:30:01;13.06;90.71
72126;SHT31;59999;51.676;22.650;2023-05-17T04:32:27;13.11;90.68
72126;SHT31;59999;51.676;22.650;2023-05-17T04:34:53;13.17;90.59
72126;SHT31;59999;51.676;22.650;2023-05-17T04:37:20;13.15;90.35
72126;SHT31;59999;51.676;22.650;2023-05-17T04:39:47;13.21;90.27
72126;SHT31;59999;51.676;22.650;2023-05-17T04:42:12;13.20;89.92
72126;SHT31;59999;51.676;22.650;2023-05-17T04:44:39;13.25;89.87
72126;SHT31;59999;51.676;22.650;2023-05-17T04:47:05;13.27;89.33
72126;SHT31;59999;51.676;22.650;2023-05-17T04:49:31;13.27;89.67
72126;SHT31;59999;51.676;22.650;2023-05-17T04:51:57;13.27;89.62
72126;SHT31;59999;51.676;22.650;2023-05-17T04:54:23;13.28;89.95
72126;SHT31;59999;51.676;22.650;2023-05-17T04:56:50;13.34;89.61
72126;SHT31;59999;51.676;22.650;2023-05-17T04:59:16;13.37;89.29
72126;SHT31;59999;51.676;22.650;2023-05-17T05:01:42;13.45;89.59
72126;SHT31;59999;51.676;22.650;2023-05-17T05:04:08;13.52;89.72
72126;SHT31;59999;51.676;22.650;2023-05-17T05:06:34;13.57;88.77
72126;SHT31;59999;51.676;22.650;2023-05-17T05:09:00;13.58;88.75
72126;SHT31;59999;51.676;22.650;2023-05-17T05:11:26;13.68;88.94
72126;SHT31;59999;51.676;22.650;2023-05-17T05:13:52;13.75;88.91
72126;SHT31;59999;51.676;22.650;2023-05-17T05:16:18;13.86;88.79
72126;SHT31;59999;51.676;22.650;2023-05-17T05:18:44;13.93;87.95
72126;SHT31;59999;51.676;22.650;2023-05-17T05:21:10;14.05;87.74
72126;SHT31;59999;51.676;22.650;2023-05-17T05:23:36;14.13;87.65
72126;SHT31;59999;51.676;22.650;2023-05-17T05:26:02;14.18;87.12
72126;SHT31;59999;51.676;22.650;2023-05-17T05:28:29;14.24;87.07
72126;SHT31;59999;51.676;22.650;2023-05-17T05:30:59;14.34;87.00
72126;SHT31;59999;51.676;22.650;2023-05-17T05:33:25;14.41;85.89
72126;SHT31;59999;51.676;22.650;2023-05-17T05:35:51;14.51;86.59
72126;SHT31;59999;51.676;22.650;2023-05-17T05:38:17;14.64;86.37
72126;SHT31;59999;51.676;22.650;2023-05-17T05:40:45;14.69;85.50
72126;SHT31;59999;51.676;22.650;2023-05-17T05:43:13;14.74;84.89
72126;SHT31;59999;51.676;22.650;2023-05-17T05:45:39;14.81;84.45
72126;SHT31;59999;51.676;22.650;2023-05-17T05:48:14;14.85;84.25
72126;SHT31;59999;51.676;22.650;2023-05-17T05:50:42;14.86;84.39
72126;SHT31;59999;51.676;22.650;2023-05-17T05:53:09;14.91;84.08
72126;SHT31;59999;51.676;22.650;2023-05-17T05:55:39;14.89;83.99
72126;SHT31;59999;51.676;22.650;2023-05-17T05:58:05;14.89;83.67
72126;SHT31;59999;51.676;22.650;2023-05-17T06:00:31;14.95;83.99
72126;SHT31;59999;51.676;22.650;2023-05-17T06:02:57;14.96;83.78
72126;SHT31;59999;51.676;22.650;2023-05-17T06:05:23;14.99;83.81
72126;SHT31;59999;51.676;22.650;2023-05-17T06:07:50;15.02;83.83
72126;SHT31;59999;51.676;22.650;2023-05-17T06:10:15;15.05;83.99
72126;SHT31;59999;51.676;22.650;2023-05-17T06:12:41;15.06;84.12
72126;SHT31;59999;51.676;22.650;2023-05-17T06:15:08;15.09;83.57
72126;SHT31;59999;51.676;22.650;2023-05-17T06:17:34;15.06;82.99
72126;SHT31;59999;51.676;22.650;2023-05-17T06:20:00;15.07;83.45
72126;SHT31;59999;51.676;22.650;2023-05-17T06:22:26;15.10;83.72
72126;SHT31;59999;51.676;22.650;2023-05-17T06:24:52;15.19;84.27
72126;SHT31;59999;51.676;22.650;2023-05-17T06:27:18;15.24;83.20
72126;SHT31;59999;51.676;22.650;2023-05-17T06:29:44;15.32;83.75
72126;SHT31;59999;51.676;22.650;2023-05-17T06:32:10;15.41;83.53
72126;SHT31;59999;51.676;22.650;2023-05-17T06:34:36;15.43;82.03
72126;SHT31;59999;51.676;22.650;2023-05-17T06:37:02;15.50;81.90
72126;SHT31;59999;51.676;22.650;2023-05-17T06:39:28;15.55;81.62
72126;SHT31;59999;51.676;22.650;2023-05-17T06:41:54;15.61;82.02
72126;SHT31;59999;51.676;22.650;2023-05-17T06:44:20;15.64;81.01
72126;SHT31;59999;51.676;22.650;2023-05-17T06:46:46;15.65;81.01
72126;SHT31;59999;51.676;22.650;2023-05-17T06:49:12;15.65;80.88
72126;SHT31;59999;51.676;22.650;2023-05-17T06:51:38;15.65;81.56
72126;SHT31;59999;51.676;22.650;2023-05-17T06:54:04;15.71;81.11
72126;SHT31;59999;51.676;22.650;2023-05-17T06:56:30;15.75;81.23
72126;SHT31;59999;51.676;22.650;2023-05-17T06:58:56;15.82;80.70
72126;SHT31;59999;51.676;22.650;2023-05-17T07:01:22;15.85;81.17
72126;SHT31;59999;51.676;22.650;2023-05-17T07:03:48;15.95;80.84
72126;SHT31;59999;51.676;22.650;2023-05-17T07:06:14;15.95;80.16
72126;SHT31;59999;51.676;22.650;2023-05-17T07:08:40;15.97;80.50
72126;SHT31;59999;51.676;22.650;2023-05-17T07:11:06;15.95;80.31
72126;SHT31;59999;51.676;22.650;2023-05-17T07:13:32;15.92;80.73
72126;SHT31;59999;51.676;22.650;2023-05-17T07:15:58;15.95;81.14
72126;SHT31;59999;51.676;22.650;2023-05-17T07:18:25;15.98;80.61
72126;SHT31;59999;51.676;22.650;2023-05-17T07:20:51;15.95;80.84
72126;SHT31;59999;51.676;22.650;2023-05-17T07:23:17;15.87;79.73
72126;SHT31;59999;51.676;22.650;2023-05-17T07:25:43;15.81;80.27
72126;SHT31;59999;51.676;22.650;2023-05-17T07:28:08;15.77;80.95
72126;SHT31;59999;51.676;22.650;2023-05-17T07:30:35;15.71;80.88
72126;SHT31;59999;51.676;22.650;2023-05-17T07:33:00;15.60;81.04
72126;SHT31;59999;51.676;22.650;2023-05-17T07:35:27;15.46;81.58
72126;SHT31;59999;51.676;22.650;2023-05-17T07:37:52;15.34;81.80
72126;SHT31;59999;51.676;22.650;2023-05-17T07:40:19;15.23;82.19
72126;SHT31;59999;51.676;22.650;2023-05-17T07:42:44;15.20;82.64
72126;SHT31;59999;51.676;22.650;2023-05-17T07:45:11;15.14;82.96
72126;SHT31;59999;51.676;22.650;2023-05-17T07:47:36;15.07;82.97
72126;SHT31;59999;51.676;22.650;2023-05-17T07:50:03;15.00;83.18
72126;SHT31;59999;51.676;22.650;2023-05-17T07:52:29;14.92;83.83
72126;SHT31;59999;51.676;22.650;2023-05-17T07:54:55;14.82;84.02
72126;SHT31;59999;51.676;22.650;2023-05-17T07:57:21;14.81;84.52
72126;SHT31;59999;51.676;22.650;2023-05-17T07:59:47;14.75;84.43
72126;SHT31;59999;51.676;22.650;2023-05-17T08:02:13;14.75;84.92
72126;SHT31;59999;51.676;22.650;2023-05-17T08:04:39;14.81;84.65
72126;SHT31;59999;51.676;22.650;2023-05-17T08:07:06;14.82;85.02
72126;SHT31;59999;51.676;22.650;2023-05-17T08:09:32;14.85;84.92
72126;SHT31;59999;51.676;22.650;2023-05-17T08:11:58;14.85;85.12
72126;SHT31;59999;51.676;22.650;2023-05-17T08:14:24;14.88;85.61
72126;SHT31;59999;51.676;22.650;2023-05-17T08:16:53;14.91;85.76
72126;SHT31;59999;51.676;22.650;2023-05-17T08:19:20;14.88;85.42
72126;SHT31;59999;51.676;22.650;2023-05-17T08:21:46;14.86;85.59
72126;SHT31;59999;51.676;22.650;2023-05-17T08:24:12;14.79;85.40
72126;SHT31;59999;51.676;22.650;2023-05-17T08:26:38;14.71;85.29
72126;SHT31;59999;51.676;22.650;2023-05-17T08:29:04;14.60;85.26
72126;SHT31;59999;51.676;22.650;2023-05-17T08:31:30;14.55;85.81
72126;SHT31;59999;51.676;22.650;2023-05-17T08:33:57;14.47;85.91
72126;SHT31;59999;51.676;22.650;2023-05-17T08:36:23;14.47;86.37
72126;SHT31;59999;51.676;22.650;2023-05-17T08:38:49;14.47;86.22
72126;SHT31;59999;51.676;22.650;2023-05-17T08:41:16;14.45;86.98
72126;SHT31;59999;51.676;22.650;2023-05-17T08:43:43;14.47;86.72
72126;SHT31;59999;51.676;22.650;2023-05-17T08:46:09;14.49;86.70
72126;SHT31;59999;51.676;22.650;2023-05-17T08:48:37;14.54;86.67
72126;SHT31;59999;51.676;22.650;2023-05-17T08:51:07;14.54;86.51
72126;SHT31;59999;51.676;22.650;2023-05-17T08:53:37;14.52;86.40
72126;SHT31;59999;51.676;22.650;2023-05-17T08:56:03;14.55;86.33
72126;SHT31;59999;51.676;22.650;2023-05-17T08:58:33;14.64;86.36
72126;SHT31;59999;51.676;22.650;2023-05-17T09:01:02;14.61;85.93
72126;SHT31;59999;51.676;22.650;2023-05-17T09:03:29;14.65;86.20
72126;SHT31;59999;51.676;22.650;2023-05-17T09:05:57;14.69;86.07
72126;SHT31;59999;51.676;22.650;2023-05-17T09:08:23;14.69;86.30
72126;SHT31;59999;51.676;22.650;2023-05-17T09:10:49;14.69;85.67
72126;SHT31;59999;51.676;22.650;2023-05-17T09:13:16;14.65;85.83
72126;SHT31;59999;51.676;22.650;2023-05-17T09:15:43;14.55;85.33
72126;SHT31;59999;51.676;22.650;2023-05-17T09:18:13;14.51;85.65
72126;SHT31;59999;51.676;22.650;2023-05-17T09:20:39;14.49;86.12
72126;SHT31;59999;51.676;22.650;2023-05-17T09:23:07;14.41;85.28
72126;SHT31;59999;51.676;22.650;2023-05-17T09:25:35;14.34;85.59
72126;SHT31;59999;51.676;22.650;2023-05-17T09:28:05;14.28;85.55
72126;SHT31;59999;51.676;22.650;2023-05-17T09:30:35;14.27;85.61
72126;SHT31;59999;51.676;22.650;2023-05-17T09:33:04;14.23;85.91
72126;SHT31;59999;51.676;22.650;2023-05-17T09:35:32;14.23;86.13
72126;SHT31;59999;51.676;22.650;2023-05-17T09:38:06;14.24;86.05
72126;SHT31;59999;51.676;22.650;2023-05-17T09:40:33;14.27;85.64
72126;SHT31;59999;51.676;22.650;2023-05-17T09:43:02;14.26;85.20
72126;SHT31;59999;51.676;22.650;2023-05-17T09:45:30;14.20;85.23
72126;SHT31;59999;51.676;22.650;2023-05-17T09:47:57;14.23;85.35
72126;SHT31;59999;51.676;22.650;2023-05-17T09:50:24;14.20;85.52
72126;SHT31;59999;51.676;22.650;2023-05-17T09:52:50;14.17;85.17
72126;SHT31;59999;51.676;22.650;2023-05-17T09:55:16;14.14;85.42
72126;SHT31;59999;51.676;22.650;2023-05-17T09:57:43;14.12;85.43
72126;SHT31;59999;51.676;22.650;2023-05-17T10:00:09;14.13;85.68
72126;SHT31;59999;51.676;22.650;2023-05-17T10:02:38;14.12;86.19
72126;SHT31;59999;51.676;22.650;2023-05-17T10:05:09;14.14;86.12
72126;SHT31;59999;51.676;22.650;2023-05-17T10:07:37;14.12;86.18
72126;SHT31;59999;51.676;22.650;2023-05-17T10:10:03;14.12;86.10
72126;SHT31;59999;51.676;22.650;2023-05-17T10:12:32;14.10;86.06
72126;SHT31;59999;51.676;22.650;2023-05-17T10:15:03;14.05;86.06
72126;SHT31;59999;51.676;22.650;2023-05-17T10:17:30;14.06;86.48
72126;SHT31;59999;51.676;22.650;2023-05-17T10:19:57;14.07;86.63
72126;SHT31;59999;51.676;22.650;2023-05-17T10:22:23;14.09;86.54
72126;SHT31;59999;51.676;22.650;2023-05-17T10:24:51;14.06;86.18
72126;SHT31;59999;51.676;22.650;2023-05-17T10:27:18;14.06;86.29
72126;SHT31;59999;51.676;22.650;2023-05-17T10:29:45;14.10;86.18
72126;SHT31;59999;51.676;22.650;2023-05-17T10:32:13;14.16;86.25
72126;SHT31;59999;51.676;22.650;2023-05-17T10:34:39;14.16;86.03
72126;SHT31;59999;51.676;22.650;2023-05-17T10:37:06;14.12;86.23
72126;SHT31;59999;51.676;22.650;2023-05-17T10:39:33;14.05;86.13
72126;SHT31;59999;51.676;22.650;2023-05-17T10:42:06;14.07;86.65
72126;SHT31;59999;51.676;22.650;2023-05-17T10:44:33;14.12;87.18
72126;SHT31;59999;51.676;22.650;2023-05-17T10:46:59;14.10;86.64
72126;SHT31;59999;51.676;22.650;2023-05-17T10:49:29;14.12;86.11
72126;SHT31;59999;51.676;22.650;2023-05-17T10:52:10;14.03;85.60
72126;SHT31;59999;51.676;22.650;2023-05-17T10:54:40;14.03;85.98
72126;SHT31;59999;51.676;22.650;2023-05-17T10:57:06;14.02;85.55
72126;SHT31;59999;51.676;22.650;2023-05-17T10:59:33;13.93;85.80
72126;SHT31;59999;51.676;22.650;2023-05-17T11:02:05;13.90;86.09
72126;SHT31;59999;51.676;22.650;2023-05-17T11:04:38;13.86;86.19
72126;SHT31;59999;51.676;22.650;2023-05-17T11:09:53;13.75;85.80
72126;SHT31;59999;51.676;22.650;2023-05-17T11:12:46;13.69;86.05
72126;SHT31;59999;51.676;22.650;2023-05-17T11:15:24;13.66;85.75
72126;SHT31;59999;51.676;22.650;2023-05-17T11:17:53;13.62;85.98
72126;SHT31;59999;51.676;22.650;2023-05-17T11:23:04;13.54;86.56
72126;SHT31;59999;51.676;22.650;2023-05-17T11:25:34;13.52;87.19
72126;SHT31;59999;51.676;22.650;2023-05-17T11:28:12;13.48;87.48
72126;SHT31;59999;51.676;22.650;2023-05-17T11:30:42;13.48;87.73
72126;SHT31;59999;51.676;22.650;2023-05-17T11:33:16;13.41;87.89
72126;SHT31;59999;51.676;22.650;2023-05-17T11:35:42;13.38;88.33
72126;SHT31;59999;51.676;22.650;2023-05-17T11:40:39;13.31;88.49
72126;SHT31;59999;51.676;22.650;2023-05-17T11:43:13;13.25;88.88
72126;SHT31;59999;51.676;22.650;2023-05-17T11:45:58;13.18;89.02
72126;SHT31;59999;51.676;22.650;2023-05-17T11:48:28;13.14;89.19
72126;SHT31;59999;51.676;22.650;2023-05-17T11:50:55;13.10;89.30
72126;SHT31;59999;51.676;22.650;2023-05-17T11:53:21;13.06;89.46
72126;SHT31;59999;51.676;22.650;2023-05-17T11:55:49;13.00;89.53
72126;SHT31;59999;51.676;22.650;2023-05-17T11:58:25;12.96;89.95
72126;SHT31;59999;51.676;22.650;2023-05-17T12:00:53;12.91;90.14
72126;SHT31;59999;51.676;22.650;2023-05-17T12:05:49;12.81;90.49
72126;SHT31;59999;51.676;22.650;2023-05-17T12:08:17;12.80;90.70
72126;SHT31;59999;51.676;22.650;2023-05-17T12:10:53;12.80;91.02
72126;SHT31;59999;51.676;22.650;2023-05-17T12:13:21;12.79;91.01
72126;SHT31;59999;51.676;22.650;2023-05-17T12:15:53;12.79;91.17
72126;SHT31;59999;51.676;22.650;2023-05-17T12:18:21;12.81;91.09
72126;SHT31;59999;51.676;22.650;2023-05-17T12:20:56;12.75;90.87
72126;SHT31;59999;51.676;22.650;2023-05-17T12:23:40;12.76;91.27
72126;SHT31;59999;51.676;22.650;2023-05-17T12:26:08;12.75;91.16
72126;SHT31;59999;51.676;22.650;2023-05-17T12:28:38;12.75;91.45
72126;SHT31;59999;51.676;22.650;2023-05-17T12:33:54;12.81;91.55
72126;SHT31;59999;51.676;22.650;2023-05-17T12:36:21;12.81;91.49
72126;SHT31;59999;51.676;22.650;2023-05-17T12:38:47;12.83;91.45
72126;SHT31;59999;51.676;22.650;2023-05-17T12:41:14;12.81;91.55
72126;SHT31;59999;51.676;22.650;2023-05-17T12:43:44;12.76;91.23
72126;SHT31;59999;51.676;22.650;2023-05-17T12:46:15;12.73;91.39
72126;SHT31;59999;51.676;22.650;2023-05-17T12:48:44;12.69;91.47
72126;SHT31;59999;51.676;22.650;2023-05-17T12:51:12;12.70;91.84
72126;SHT31;59999;51.676;22.650;2023-05-17T12:53:40;12.69;91.89
72126;SHT31;59999;51.676;22.650;2023-05-17T12:56:07;12.67;91.72
72126;SHT31;59999;51.676;22.650;2023-05-17T12:58:33;12.66;91.58
72126;SHT31;59999;51.676;22.650;2023-05-17T13:01:01;12.62;91.71
72126;SHT31;59999;51.676;22.650;2023-05-17T13:03:28;12.62;91.80
72126;SHT31;59999;51.676;22.650;2023-05-17T13:06:04;12.63;91.83
72126;SHT31;59999;51.676;22.650;2023-05-17T13:08:31;12.59;91.80
72126;SHT31;59999;51.676;22.650;2023-05-17T13:11:11;12.59;91.70
72126;SHT31;59999;51.676;22.650;2023-05-17T13:13:39;12.57;91.73
72126;SHT31;59999;51.676;22.650;2023-05-17T13:16:05;12.57;91.76
72126;SHT31;59999;51.676;22.650;2023-05-17T13:18:48;12.62;92.14
72126;SHT31;59999;51.676;22.650;2023-05-17T13:21:16;12.66;91.79
72126;SHT31;59999;51.676;22.650;2023-05-17T13:23:43;12.66;91.69
72126;SHT31;59999;51.676;22.650;2023-05-17T13:26:09;12.73;91.99
72126;SHT31;59999;51.676;22.650;2023-05-17T13:28:36;12.73;91.82
72126;SHT31;59999;51.676;22.650;2023-05-17T13:31:02;12.75;91.65
72126;SHT31;59999;51.676;22.650;2023-05-17T13:33:28;12.79;91.69
72126;SHT31;59999;51.676;22.650;2023-05-17T13:35:54;12.84;91.61
72126;SHT31;59999;51.676;22.650;2023-05-17T13:38:20;12.94;91.71
72126;SHT31;59999;51.676;22.650;2023-05-17T13:40:46;13.01;91.41
72126;SHT31;59999;51.676;22.650;2023-05-17T13:43:12;13.07;91.07
72126;SHT31;59999;51.676;22.650;2023-05-17T13:45:38;13.12;90.79
72126;SHT31;59999;51.676;22.650;2023-05-17T13:48:04;13.17;90.68
72126;SHT31;59999;51.676;22.650;2023-05-17T13:50:29;13.21;90.91
72126;SHT31;59999;51.676;22.650;2023-05-17T13:52:56;13.28;90.90
72126;SHT31;59999;51.676;22.650;2023-05-17T13:55:21;13.31;91.21
72126;SHT31;59999;51.676;22.650;2023-05-17T13:57:48;13.29;90.54
72126;SHT31;59999;51.676;22.650;2023-05-17T14:00:14;13.22;90.10
72126;SHT31;59999;51.676;22.650;2023-05-17T14:02:41;13.20;90.38
72126;SHT31;59999;51.676;22.650;2023-05-17T14:05:07;13.15;90.54
72126;SHT31;59999;51.676;22.650;2023-05-17T14:07:35;13.14;90.58
72126;SHT31;59999;51.676;22.650;2023-05-17T14:10:07;13.15;90.56
72126;SHT31;59999;51.676;22.650;2023-05-17T14:12:34;13.17;90.65
72126;SHT31;59999;51.676;22.650;2023-05-17T14:15:00;13.12;90.49
72126;SHT31;59999;51.676;22.650;2023-05-17T14:17:26;13.11;90.35
72126;SHT31;59999;51.676;22.650;2023-05-17T14:19:52;13.11;90.60
72126;SHT31;59999;51.676;22.650;2023-05-17T14:22:18;13.11;90.64
72126;SHT31;59999;51.676;22.650;2023-05-17T14:24:44;13.07;90.47
72126;SHT31;59999;51.676;22.650;2023-05-17T14:27:10;13.07;90.55
72126;SHT31;59999;51.676;22.650;2023-05-17T14:29:36;13.01;90.56
72126;SHT31;59999;51.676;22.650;2023-05-17T14:32:02;12.94;90.30
72126;SHT31;59999;51.676;22.650;2023-05-17T14:34:28;12.87;90.44
72126;SHT31;59999;51.676;22.650;2023-05-17T14:36:55;12.87;90.67
72126;SHT31;59999;51.676;22.650;2023-05-17T14:39:21;12.87;91.02
72126;SHT31;59999;51.676;22.650;2023-05-17T14:41:47;12.87;91.16
72126;SHT31;59999;51.676;22.650;2023-05-17T14:44:13;12.87;91.09
72126;SHT31;59999;51.676;22.650;2023-05-17T14:46:39;12.87;91.23
72126;SHT31;59999;51.676;22.650;2023-05-17T14:49:05;12.87;90.99
72126;SHT31;59999;51.676;22.650;2023-05-17T14:51:31;12.86;91.03
72126;SHT31;59999;51.676;22.650;2023-05-17T14:53:57;12.89;90.72
72126;SHT31;59999;51.676;22.650;2023-05-17T14:56:23;12.86;90.79
72126;SHT31;59999;51.676;22.650;2023-05-17T14:58:50;12.89;90.68
72126;SHT31;59999;51.676;22.650;2023-05-17T15:01:16;12.89;91.09
72126;SHT31;59999;51.676;22.650;2023-05-17T15:03:42;12.90;91.05
72126;SHT31;59999;51.676;22.650;2023-05-17T15:06:08;12.87;90.80
72126;SHT31;59999;51.676;22.650;2023-05-17T15:08:34;12.87;90.80
72126;SHT31;59999;51.676;22.650;2023-05-17T15:11:00;12.90;90.87
72126;SHT31;59999;51.676;22.650;2023-05-17T15:13:26;12.90;90.66
72126;SHT31;59999;51.676;22.650;2023-05-17T15:15:52;12.87;90.79
72126;SHT31;59999;51.676;22.650;2023-05-17T15:18:18;12.86;90.63
72126;SHT31;59999;51.676;22.650;2023-05-17T15:20:45;12.84;91.05
72126;SHT31;59999;51.676;22.650;2023-05-17T15:23:11;12.80;91.10
72126;SHT31;59999;51.676;22.650;2023-05-17T15:25:37;12.80;91.44
72126;SHT31;59999;51.676;22.650;2023-05-17T15:28:03;12.77;91.59
72126;SHT31;59999;51.676;22.650;2023-05-17T15:30:29;12.77;91.79
72126;SHT31;59999;51.676;22.650;2023-05-17T15:32:58;12.75;91.77
72126;SHT31;59999;51.676;22.650;2023-05-17T15:35:24;12.72;91.89
72126;SHT31;59999;51.676;22.650;2023-05-17T15:37:51;12.66;91.90
72126;SHT31;59999;51.676;22.650;2023-05-17T15:40:18;12.64;92.00
72126;SHT31;59999;51.676;22.650;2023-05-17T15:42:46;12.63;92.22
72126;SHT31;59999;51.676;22.650;2023-05-17T15:45:12;12.64;92.13